Time;durP1;ratioP1;P1;durP2;ratioP2;P2;SDS_P1;SDS_P2;PMS_P1;PMS_P2;Temp;Humidity;BMP_temperature;BMP_pressure;BME280_temperature;BME280_humidity;BME280_pressure;Samples;Min_cycle;Max_cycle;Signal;HPM_P1;HPM_P2
2021/12/17 00:05:02;;;;;;;;;;;;;;;5.98;100.00;103786.19;5068940;28;20494;-77
2021/12/17 00:07:29;;;;;;;;;;;;;;;5.97;100.00;103783.59;5057851;28;19916;-76
2021/12/17 00:09:56;;;;;;;;;;;;;;;5.95;100.00;103769.72;5057365;28;20498;-76
2021/12/17 00:12:23;;;;;;;;;;;;;;;5.92;100.00;103775.91;5075098;28;19920;-77
2021/12/17 00:14:49;;;;;;;;;;;;;;;5.90;100.00;103766.44;5055428;28;19927;-77
2021/12/17 00:17:20;;;;;;;;;;;;;;;5.89;100.00;103770.75;5052799;28;19930;-77
2021/12/17 00:20:17;;;;;;;;;;;;;;;5.87;100.00;103775.16;5072441;28;19918;-76
2021/12/17 00:48:22;;;;;;;;;;;;;;;5.79;100.00;103770.16;5054600;28;19927;-77
2021/12/17 00:50:34;;;;;;;;;;;;;;;5.78;100.00;103775.41;5054674;28;19919;-77
2021/12/17 00:52:58;;;;;;;;;;;;;;;5.76;100.00;103777.19;5067243;28;19920;-76
2021/12/17 00:55:23;;;;;;;;;;;;;;;5.70;100.00;103773.00;5069900;28;20136;-76
2021/12/17 00:57:49;;;;;;;;;;;;;;;5.73;100.00;103770.31;5058224;28;19923;-76
2021/12/17 01:00:20;;;;;;;;;;;;;;;5.74;100.00;103777.22;5056614;28;19928;-78
2021/12/17 01:02:46;;;;;;;;;;;;;;;5.74;100.00;103782.44;5057568;28;19916;-77
2021/12/17 01:05:17;;;;;;;;;;;;;;;5.73;100.00;103772.94;5072291;28;20025;-79
2021/12/17 01:07:49;;;;;;;;;;;;;;;5.73;100.00;103779.91;5052699;28;20469;-75
2021/12/17 01:10:18;;;;;;;;;;;;;;;5.77;100.00;103774.56;5057072;28;20349;-77
2021/12/17 01:13:07;;;;;;;;;;;;;;;5.89;100.00;103778.56;5057286;28;20442;-77
2021/12/17 01:15:59;;;;;;;;;;;;;;;5.82;100.00;103777.91;5055678;28;19984;-76
2021/12/17 01:19:27;;;;;;;;;;;;;;;5.81;100.00;103770.13;5075076;28;20014;-78
2021/12/17 01:35:46;;;;;;;;;;;;;;;5.87;100.00;103766.50;5074064;28;19973;-77
2021/12/17 01:43:41;;;;;;;;;;;;;;;5.93;100.00;103758.50;5059336;28;19921;-77
2021/12/17 01:46:09;;;;;;;;;;;;;;;5.87;100.00;103780.38;5041302;28;19951;-77
2021/12/17 01:48:53;;;;;;;;;;;;;;;5.83;100.00;103774.38;5058873;28;20008;-77
2021/12/17 01:56:57;;;;;;;;;;;;;;;5.77;100.00;103771.09;5074313;28;20369;-76
2021/12/17 01:59:27;;;;;;;;;;;;;;;5.71;100.00;103779.06;5043046;28;19967;-77
2021/12/17 02:01:58;;;;;;;;;;;;;;;5.77;100.00;103761.53;5061066;28;19919;-78
2021/12/17 02:04:24;;;;;;;;;;;;;;;5.70;100.00;103759.13;5061469;28;19934;-78
2021/12/17 02:06:49;;;;;;;;;;;;;;;5.68;100.00;103743.53;5060012;28;19929;-77
2021/12/17 02:31:41;;;;;;;;;;;;;;;5.72;100.00;103719.13;5062006;28;19919;-76
2021/12/17 02:34:28;;;;;;;;;;;;;;;5.76;100.00;103719.88;5075650;28;19926;-77
2021/12/17 02:36:56;;;;;;;;;;;;;;;5.88;100.00;103711.75;5043093;28;19919;-77
2021/12/17 02:47:33;;;;;;;;;;;;;;;5.79;100.00;103704.19;5093914;28;20093;-78
2021/12/17 02:49:59;;;;;;;;;;;;;;;5.74;100.00;103706.91;5041924;28;19912;-78
2021/12/17 02:52:26;;;;;;;;;;;;;;;5.72;100.00;103710.47;5078936;28;19912;-77
2021/12/17 02:54:52;;;;;;;;;;;;;;;5.69;100.00;103719.22;5076032;28;19924;-78
2021/12/17 02:57:17;;;;;;;;;;;;;;;5.73;100.00;103720.84;5050950;28;19982;-78
2021/12/17 02:59:43;;;;;;;;;;;;;;;5.71;100.00;103726.97;5080777;28;19916;-77
2021/12/17 03:02:09;;;;;;;;;;;;;;;5.77;100.00;103734.63;5061779;28;20323;-77
2021/12/17 03:04:38;;;;;;;;;;;;;;;5.79;100.00;103738.06;5061388;28;19916;-77
2021/12/17 03:07:03;;;;;;;;;;;;;;;5.80;100.00;103742.34;5061029;28;19947;-77
2021/12/17 03:09:52;;;;;;;;;;;;;;;5.77;100.00;103739.84;5043199;28;19919;-77
2021/12/17 03:12:23;;;;;;;;;;;;;;;5.70;100.00;103746.97;5052044;28;19923;-75
2021/12/17 03:15:01;;;;;;;;;;;;;;;5.68;100.00;103750.50;5055427;28;19920;-76
2021/12/17 03:25:39;;;;;;;;;;;;;;;5.71;100.00;103748.69;5051078;28;19916;-77
2021/12/17 03:28:07;;;;;;;;;;;;;;;5.73;100.00;103753.84;5073318;28;19916;-76
2021/12/17 03:30:33;;;;;;;;;;;;;;;5.70;100.00;103744.34;5055891;28;20430;-78
2021/12/17 03:32:58;;;;;;;;;;;;;;;5.73;100.00;103735.63;5056965;28;20386;-77
2021/12/17 03:35:24;;;;;;;;;;;;;;;5.73;100.00;103733.88;5056366;28;19919;-76
2021/12/17 03:37:50;;;;;;;;;;;;;;;5.70;100.00;103738.28;5039474;28;19912;-76
2021/12/17 03:40:17;;;;;;;;;;;;;;;5.75;100.00;103731.22;5070581;28;19912;-77
2021/12/17 03:42:49;;;;;;;;;;;;;;;5.70;100.00;103726.13;5066324;28;19923;-76
2021/12/17 03:45:18;;;;;;;;;;;;;;;5.75;100.00;103718.19;5059213;28;19916;-75
2021/12/17 03:47:54;;;;;;;;;;;;;;;5.68;100.00;103720.09;5063363;28;20412;-76
2021/12/17 03:50:21;;;;;;;;;;;;;;;5.74;100.00;103714.72;5058950;28;19920;-76
2021/12/17 03:52:50;;;;;;;;;;;;;;;5.72;100.00;103715.66;5060245;28;19924;-77
2021/12/17 03:55:16;;;;;;;;;;;;;;;5.66;100.00;103701.91;5074427;28;19912;-76
2021/12/17 03:57:45;;;;;;;;;;;;;;;5.76;100.00;103699.06;5054492;28;19923;-75
2021/12/17 04:00:11;;;;;;;;;;;;;;;5.72;100.00;103700.03;5059818;28;19911;-76
2021/12/17 04:02:43;;;;;;;;;;;;;;;5.69;100.00;103719.22;5071456;28;20354;-76
2021/12/17 04:05:12;;;;;;;;;;;;;;;5.68;100.00;103706.25;5058350;28;19912;-76
2021/12/17 04:07:38;;;;;;;;;;;;;;;5.73;100.00;103692.19;5079255;28;20339;-76
2021/12/17 04:10:13;;;;;;;;;;;;;;;5.74;100.00;103693.03;5076073;28;19918;-75
2021/12/17 04:13:23;;;;;;;;;;;;;;;5.64;100.00;103703.69;5072500;28;20021;-76
2021/12/17 04:15:37;;;;;;;;;;;;;;;5.73;100.00;103706.97;5077304;28;20431;-75
2021/12/17 04:18:07;;;;;;;;;;;;;;;5.65;100.00;103718.44;5039385;28;19969;-75
2021/12/17 04:20:33;;;;;;;;;;;;;;;5.64;100.00;103723.69;5060321;28;19912;-76
2021/12/17 04:22:59;;;;;;;;;;;;;;;5.69;100.00;103721.81;5061503;28;19945;-76
2021/12/17 04:25:25;;;;;;;;;;;;;;;5.70;100.00;103707.91;5075474;28;19912;-75
2021/12/17 04:27:51;;;;;;;;;;;;;;;5.66;100.00;103714.94;5076852;28;19916;-77
2021/12/17 04:30:17;;;;;;;;;;;;;;;5.76;100.00;103706.88;5060111;28;19916;-76
2021/12/17 04:32:43;;;;;;;;;;;;;;;5.71;100.00;103706.13;5054950;28;19957;-75
2021/12/17 04:35:08;;;;;;;;;;;;;;;5.66;100.00;103701.91;5059559;28;19922;-78
2021/12/17 04:37:45;;;;;;;;;;;;;;;5.65;100.00;103692.41;5093491;28;20021;-76
2021/12/17 04:40:11;;;;;;;;;;;;;;;5.64;100.00;103697.66;5041387;28;19954;-75
2021/12/17 04:42:57;;;;;;;;;;;;;;;5.63;100.00;103709.81;5056524;28;19913;-75
2021/12/17 04:45:25;;;;;;;;;;;;;;;5.61;100.00;103708.13;5064428;28;19916;-75
2021/12/17 04:59:18;;;;;;;;;;;;;;;5.58;100.00;103708.25;5060931;28;19954;-77
2021/12/17 05:01:44;;;;;;;;;;;;;;;5.65;100.00;103705.44;5044597;28;19912;-76
2021/12/17 05:04:10;;;;;;;;;;;;;;;5.60;100.00;103722.06;5057082;28;19938;-76
2021/12/17 05:06:36;;;;;;;;;;;;;;;5.56;100.00;103723.06;5066559;28;19923;-76
2021/12/17 05:09:13;;;;;;;;;;;;;;;5.53;100.00;103726.56;5074248;28;19912;-76
2021/12/17 05:19:54;;;;;;;;;;;;;;;5.52;100.00;103742.22;5088298;28;19927;-76
2021/12/17 05:22:20;;;;;;;;;;;;;;;5.46;100.00;103746.72;5040917;28;19916;-75
2021/12/17 05:24:46;;;;;;;;;;;;;;;5.49;100.00;103742.31;5060050;28;19912;-76
2021/12/17 05:27:12;;;;;;;;;;;;;;;5.46;100.00;103744.13;5056415;28;19922;-77
2021/12/17 05:29:46;;;;;;;;;;;;;;;5.48;100.00;103741.44;5039168;28;19912;-76
2021/12/17 05:32:12;;;;;;;;;;;;;;;5.45;100.00;103741.56;5056771;28;19927;-75
2021/12/17 05:34:39;;;;;;;;;;;;;;;5.46;100.00;103741.53;5039505;28;20483;-75
2021/12/17 05:37:08;;;;;;;;;;;;;;;5.45;100.00;103734.59;5056203;28;20356;-75
2021/12/17 05:39:33;;;;;;;;;;;;;;;5.44;100.00;103734.63;5055878;28;20038;-76
2021/12/17 05:42:01;;;;;;;;;;;;;;;5.47;100.00;103734.56;5039485;28;19912;-75
2021/12/17 05:44:52;;;;;;;;;;;;;;;5.51;100.00;103738.78;5052365;28;19920;-75
2021/12/17 05:47:17;;;;;;;;;;;;;;;5.55;100.00;103742.16;5051801;28;19963;-75
2021/12/17 05:49:43;;;;;;;;;;;;;;;5.59;100.00;103730.75;5059823;28;20509;-77
2021/12/17 05:52:08;;;;;;;;;;;;;;;5.50;100.00;103726.69;5058993;28;19916;-76
2021/12/17 05:54:34;;;;;;;;;;;;;;;5.51;100.00;103725.75;5074969;28;19920;-75
2021/12/17 05:57:00;;;;;;;;;;;;;;;5.55;100.00;103726.53;5070808;28;19916;-76
2021/12/17 05:59:34;;;;;;;;;;;;;;;5.50;100.00;103721.47;5053526;28;20544;-75
2021/12/17 06:02:08;;;;;;;;;;;;;;;5.51;100.00;103720.56;5075682;28;20401;-75
2021/12/17 06:04:35;;;;;;;;;;;;;;;5.49;100.00;103713.69;5040374;28;19912;-74
2021/12/17 06:07:04;;;;;;;;;;;;;;;5.38;100.00;103717.41;5058612;28;19911;-75
2021/12/17 06:09:30;;;;;;;;;;;;;;;5.43;100.00;103719.91;5055799;28;19923;-77
2021/12/17 06:11:55;;;;;;;;;;;;;;;5.46;100.00;103720.69;5038121;28;20406;-75
2021/12/17 06:14:21;;;;;;;;;;;;;;;5.43;100.00;103710.34;5053123;28;21230;-76
2021/12/17 06:16:48;;;;;;;;;;;;;;;5.41;100.00;103706.09;5039692;28;19916;-76
2021/12/17 06:19:20;;;;;;;;;;;;;;;5.29;100.00;103703.78;5056979;28;20050;-77
2021/12/17 06:21:47;;;;;;;;;;;;;;;5.21;100.00;103703.97;5056085;28;19922;-76
2021/12/17 06:24:12;;;;;;;;;;;;;;;5.09;100.00;103707.75;5038832;28;19911;-76
2021/12/17 06:26:38;;;;;;;;;;;;;;;5.04;100.00;103715.66;5057845;28;19918;-76
2021/12/17 06:29:05;;;;;;;;;;;;;;;5.12;100.00;103725.03;5051295;28;19912;-75
2021/12/17 06:31:31;;;;;;;;;;;;;;;5.09;100.00;103732.94;5056955;28;19916;-75
2021/12/17 06:33:56;;;;;;;;;;;;;;;5.11;100.00;103736.34;5057737;28;19934;-77
2021/12/17 06:36:22;;;;;;;;;;;;;;;5.15;100.00;103719.75;5043184;28;19917;-76
2021/12/17 06:38:48;;;;;;;;;;;;;;;5.16;100.00;103713.66;5057984;28;20487;-76
2021/12/17 06:41:16;;;;;;;;;;;;;;;5.22;100.00;103729.13;5056998;28;19912;-77
2021/12/17 06:43:43;;;;;;;;;;;;;;;5.23;100.00;103729.06;5056769;28;19941;-76
2021/12/17 06:46:23;;;;;;;;;;;;;;;5.23;100.00;103715.22;5055958;28;19991;-76
2021/12/17 06:48:56;;;;;;;;;;;;;;;5.21;100.00;103728.25;5073535;28;19916;-74
2021/12/17 06:58:05;;;;;;;;;;;;;;;5.26;100.00;103733.34;5064005;28;20457;-76
2021/12/17 07:07:40;;;;;;;;;;;;;;;5.24;100.00;103748.16;5085337;28;20603;-75
2021/12/17 07:10:14;;;;;;;;;;;;;;;5.27;100.00;103748.06;5085972;28;20043;-76
2021/12/17 07:18:50;;;;;;;;;;;;;;;5.17;100.00;103755.25;5062924;28;19979;-76
2021/12/17 07:32:16;;;;;;;;;;;;;;;5.37;100.00;103748.69;5077147;28;19923;-76
2021/12/17 07:34:20;;;;;;;;;;;;;;;5.25;100.00;103757.66;5059036;28;19920;-75
2021/12/17 07:38:36;;;;;;;;;;;;;;;5.29;100.00;103763.66;5074877;28;19916;-78
2021/12/17 07:39:41;;;;;;;;;;;;;;;5.19;100.00;103760.41;5059958;28;19930;-76
2021/12/17 07:42:13;;;;;;;;;;;;;;;5.18;100.00;103756.97;5043241;28;19916;-76
2021/12/17 07:45:05;;;;;;;;;;;;;;;5.27;100.00;103755.88;5058996;28;19986;-76
2021/12/17 07:47:50;;;;;;;;;;;;;;;5.21;100.00;103740.41;5060151;28;20405;-77
2021/12/17 07:50:25;;;;;;;;;;;;;;;5.20;100.00;103743.94;5060198;28;19918;-77
2021/12/17 07:53:08;;;;;;;;;;;;;;;5.21;100.00;103748.22;5059704;28;19923;-76
2021/12/17 07:55:56;;;;;;;;;;;;;;;5.06;100.00;103742.50;5057412;28;20089;-76
2021/12/17 07:58:22;;;;;;;;;;;;;;;5.08;100.00;103752.88;5059270;28;20024;-76
2021/12/17 08:00:48;;;;;;;;;;;;;;;5.09;100.00;103756.34;5057724;28;19969;-77
2021/12/17 08:03:14;;;;;;;;;;;;;;;4.99;100.00;103763.50;5059073;28;19916;-76
2021/12/17 08:05:53;;;;;;;;;;;;;;;4.96;100.00;103761.81;5036382;28;20077;-77
2021/12/17 08:08:19;;;;;;;;;;;;;;;5.00;100.00;103758.25;5058024;28;19912;-77
2021/12/17 08:10:54;;;;;;;;;;;;;;;5.01;100.00;103759.09;5060225;28;19994;-76
2021/12/17 08:13:27;;;;;;;;;;;;;;;5.02;100.00;103768.63;5040997;28;19937;-76
2021/12/17 08:16:15;;;;;;;;;;;;;;;5.07;100.00;103762.44;5055687;28;19920;-76
2021/12/17 08:18:53;;;;;;;;;;;;;;;5.13;100.00;103774.44;5060663;28;19915;-77
2021/12/17 08:26:53;;;;;;;;;;;;;;;5.04;100.00;103775.50;5075480;28;20007;-76
2021/12/17 08:29:50;;;;;;;;;;;;;;;5.15;100.00;103777.84;5040707;28;20006;-77
2021/12/17 08:32:16;;;;;;;;;;;;;;;5.26;100.00;103775.00;5059117;28;19912;-78
2021/12/17 08:34:49;;;;;;;;;;;;;;;5.23;100.00;103775.91;5069127;28;19920;-77
2021/12/17 08:37:16;;;;;;;;;;;;;;;5.23;100.00;103775.91;5041869;28;19919;-77
2021/12/17 08:39:44;;;;;;;;;;;;;;;5.21;100.00;103769.88;5053470;28;19916;-77
2021/12/17 08:42:35;;;;;;;;;;;;;;;5.24;100.00;103775.03;5066297;28;19916;-77
2021/12/17 08:45:03;;;;;;;;;;;;;;;5.20;100.00;103780.38;5058671;28;19970;-76
2021/12/17 08:47:51;;;;;;;;;;;;;;;5.18;100.00;103777.78;5061667;28;20328;-76
2021/12/17 08:50:37;;;;;;;;;;;;;;;5.16;100.00;103779.59;5043252;28;20368;-75
2021/12/17 08:53:02;;;;;;;;;;;;;;;5.22;100.00;103773.38;5059123;28;19919;-78
2021/12/17 08:55:31;;;;;;;;;;;;;;;5.19;100.00;103771.69;5072459;28;19916;-77
2021/12/17 08:57:57;;;;;;;;;;;;;;;5.21;100.00;103763.84;5058590;28;19916;-77
2021/12/17 09:00:23;;;;;;;;;;;;;;;5.28;100.00;103761.94;5073864;28;19924;-75
2021/12/17 09:02:59;;;;;;;;;;;;;;;5.26;100.00;103772.41;5041190;28;20314;-77
2021/12/17 09:05:37;;;;;;;;;;;;;;;5.27;100.00;103761.06;5056569;28;19943;-78
2021/12/17 09:08:04;;;;;;;;;;;;;;;5.29;100.00;103774.91;5074970;28;20270;-77
2021/12/17 09:10:39;;;;;;;;;;;;;;;5.28;100.00;103781.03;5059215;28;20010;-77
2021/12/17 09:13:06;;;;;;;;;;;;;;;5.32;100.00;103779.19;5075115;28;20015;-77
2021/12/17 09:15:31;;;;;;;;;;;;;;;5.49;100.00;103776.19;5074722;28;19978;-76
2021/12/17 09:18:02;;;;;;;;;;;;;;;5.44;100.00;103760.66;5070423;28;19946;-78
2021/12/17 09:20:29;;;;;;;;;;;;;;;5.42;100.00;103783.28;5060524;28;19969;-76
2021/12/17 09:22:55;;;;;;;;;;;;;;;5.32;100.00;103787.00;5080947;28;19923;-77
2021/12/17 09:25:23;;;;;;;;;;;;;;;5.35;100.00;103784.31;5047426;28;19971;-76
2021/12/17 09:27:55;;;;;;;;;;;;;;;5.37;100.00;103780.78;5061207;28;20022;-76
2021/12/17 09:30:27;;;;;;;;;;;;;;;5.40;100.00;103779.84;5057967;28;20396;-77
2021/12/17 09:32:53;;;;;;;;;;;;;;;5.42;100.00;103786.72;5058897;28;19916;-77
2021/12/17 09:35:21;;;;;;;;;;;;;;;5.36;100.00;103792.09;5076121;28;19912;-75
2021/12/17 09:37:46;;;;;;;;;;;;;;;5.40;100.00;103796.31;5041158;28;19918;-76
2021/12/17 09:40:12;;;;;;;;;;;;;;;5.41;100.00;103802.41;5058391;28;19916;-76
2021/12/17 09:42:40;;;;;;;;;;;;;;;5.45;100.00;103804.03;5056294;28;19916;-76
2021/12/17 09:45:06;;;;;;;;;;;;;;;5.52;100.00;103805.59;5057022;28;19916;-77
2021/12/17 09:47:32;;;;;;;;;;;;;;;5.52;100.00;103807.31;5059958;28;19930;-78
2021/12/17 09:49:58;;;;;;;;;;;;;;;5.57;100.00;103808.91;5061021;28;20397;-76
2021/12/17 09:52:24;;;;;;;;;;;;;;;5.72;100.00;103814.63;5037649;28;20003;-78
2021/12/17 09:54:50;;;;;;;;;;;;;;;5.66;100.00;103823.47;5076840;28;20385;-77
2021/12/17 09:57:19;;;;;;;;;;;;;;;5.67;100.00;103817.38;5055771;28;19912;-75
2021/12/17 09:59:44;;;;;;;;;;;;;;;5.64;100.00;103812.22;5076250;28;19926;-77
2021/12/17 10:02:10;;;;;;;;;;;;;;;5.69;100.00;103809.50;5075963;28;19979;-75
2021/12/17 10:04:39;;;;;;;;;;;;;;;5.66;100.00;103806.09;5043539;28;20425;-76
2021/12/17 10:07:19;;;;;;;;;;;;;;;5.64;100.00;103810.47;5058984;28;19912;-76
2021/12/17 10:10:11;;;;;;;;;;;;;;;5.70;100.00;103811.22;5054638;28;20400;-76
2021/12/17 10:12:38;;;;;;;;;;;;;;;5.71;100.00;103820.72;5065026;28;20374;-77
2021/12/17 10:15:05;;;;;;;;;;;;;;;5.70;100.00;103822.50;5055087;28;19916;-78
2021/12/17 10:17:31;;;;;;;;;;;;;;;5.70;100.00;103829.47;5071418;28;19999;-76
2021/12/17 10:19:57;;;;;;;;;;;;;;;5.69;100.00;103826.00;5039992;28;20000;-76
2021/12/17 10:22:23;;;;;;;;;;;;;;;5.67;100.00;103822.59;5074326;28;19916;-77
2021/12/17 10:24:57;;;;;;;;;;;;;;;5.66;100.00;103821.72;5074720;28;19919;-78
2021/12/17 10:27:28;;;;;;;;;;;;;;;5.64;100.00;103826.09;5055594;28;19956;-76
2021/12/17 10:29:53;;;;;;;;;;;;;;;5.57;100.00;103828.91;5074338;28;19938;-76
2021/12/17 10:32:20;;;;;;;;;;;;;;;5.49;100.00;103828.25;5056813;28;19912;-78
2021/12/17 10:35:02;;;;;;;;;;;;;;;5.47;100.00;103815.25;5053707;28;19920;-76
2021/12/17 10:37:36;;;;;;;;;;;;;;;5.48;100.00;103827.38;5057658;28;19919;-76
2021/12/17 10:40:13;;;;;;;;;;;;;;;5.53;100.00;103825.53;5071022;28;19916;-76
2021/12/17 10:42:41;;;;;;;;;;;;;;;5.54;100.00;103818.56;5070121;28;20242;-77
2021/12/17 10:45:12;;;;;;;;;;;;;;;5.60;100.00;103813.22;5056996;28;19927;-75
2021/12/17 10:47:46;;;;;;;;;;;;;;;5.60;100.00;103823.63;5060484;28;19969;-75
2021/12/17 10:50:22;;;;;;;;;;;;;;;5.56;100.00;103820.25;5058392;28;19912;-77
2021/12/17 10:52:55;;;;;;;;;;;;;;;5.58;100.00;103821.06;5056561;28;19920;-76
2021/12/17 10:55:23;;;;;;;;;;;;;;;5.52;100.00;103816.00;5078203;28;20431;-78
2021/12/17 10:57:49;;;;;;;;;;;;;;;5.60;100.00;103816.66;5044286;28;20290;-76
2021/12/17 11:00:16;;;;;;;;;;;;;;;5.71;100.00;103816.41;5075058;28;19916;-76
2021/12/17 11:02:49;;;;;;;;;;;;;;;5.85;100.00;103814.28;5077249;28;19994;-77
2021/12/17 11:05:15;;;;;;;;;;;;;;;5.76;100.00;103821.47;5076708;28;19916;-78
2021/12/17 11:07:45;;;;;;;;;;;;;;;5.80;100.00;103821.38;5076565;28;19922;-77
2021/12/17 11:10:11;;;;;;;;;;;;;;;5.74;100.00;103800.66;5078650;28;19923;-77
2021/12/17 11:12:41;;;;;;;;;;;;;;;5.68;100.00;103807.81;5061452;28;19912;-76
2021/12/17 11:15:26;;;;;;;;;;;;;;;5.72;100.00;103799.00;5059600;28;19973;-76
2021/12/17 11:18:00;;;;;;;;;;;;;;;5.86;100.00;103796.91;5041896;28;19945;-76
2021/12/17 11:20:27;;;;;;;;;;;;;;;5.82;100.00;103801.34;5059513;28;19916;-78
2021/12/17 11:22:54;;;;;;;;;;;;;;;5.74;100.00;103798.06;5060768;28;20026;-75
2021/12/17 11:25:20;;;;;;;;;;;;;;;5.86;100.00;103794.31;5061559;28;19955;-76
2021/12/17 11:27:46;;;;;;;;;;;;;;;5.83;100.00;103794.38;5060605;28;20011;-76
2021/12/17 11:30:13;;;;;;;;;;;;;;;5.83;100.00;103795.22;5058551;28;20389;-78
2021/12/17 11:32:41;;;;;;;;;;;;;;;5.92;100.00;103785.47;5069678;28;19927;-76
2021/12/17 11:35:07;;;;;;;;;;;;;;;5.90;100.00;103784.66;5077977;28;19927;-76
2021/12/17 11:37:33;;;;;;;;;;;;;;;5.73;100.00;103787.72;5061620;28;19915;-79
2021/12/17 11:40:01;;;;;;;;;;;;;;;5.65;100.00;103788.75;5062195;28;19916;-76
2021/12/17 11:42:47;;;;;;;;;;;;;;;5.71;100.00;103786.88;5063634;28;19916;-78
2021/12/17 11:45:23;;;;;;;;;;;;;;;5.75;100.00;103796.34;5061678;28;20613;-76
2021/12/17 11:47:49;;;;;;;;;;;;;;;5.76;100.00;103785.84;5041300;28;19921;-78
2021/12/17 11:50:16;;;;;;;;;;;;;;;5.77;100.00;103781.53;5064899;28;19919;-77
2021/12/17 11:52:46;;;;;;;;;;;;;;;5.77;100.00;103784.13;5062320;28;19912;-78
2021/12/17 11:55:33;;;;;;;;;;;;;;;5.73;100.00;103785.97;5062264;28;20026;-77
2021/12/17 11:58:00;;;;;;;;;;;;;;;5.82;100.00;103784.84;5079832;28;20234;-77
2021/12/17 12:00:49;;;;;;;;;;;;;;;5.89;100.00;103781.19;5079465;28;19954;-77
2021/12/17 12:03:22;;;;;;;;;;;;;;;5.91;100.00;103773.31;5053516;28;19911;-78
2021/12/17 12:05:52;;;;;;;;;;;;;;;5.98;100.00;103772.31;5065417;28;19920;-77
2021/12/17 12:08:50;;;;;;;;;;;;;;;5.96;100.00;103771.50;5063390;28;19916;-78
2021/12/17 12:11:25;;;;;;;;;;;;;;;5.99;100.00;103771.38;5081528;28;20433;-78
2021/12/17 12:13:52;;;;;;;;;;;;;;;6.02;100.00;103769.56;5042984;28;19950;-77
2021/12/17 12:16:23;;;;;;;;;;;;;;;6.00;100.00;103773.09;5064263;28;19923;-77
2021/12/17 12:18:49;;;;;;;;;;;;;;;6.07;100.00;103773.81;5064764;28;19912;-77
2021/12/17 12:21:17;;;;;;;;;;;;;;;6.00;100.00;103773.97;5064869;28;19923;-77
2021/12/17 12:23:44;;;;;;;;;;;;;;;5.98;100.00;103774.91;5065191;28;20007;-77
2021/12/17 12:26:12;;;;;;;;;;;;;;;5.94;100.00;103781.91;5064816;28;19914;-77
2021/12/17 12:28:40;;;;;;;;;;;;;;;5.94;100.00;103783.69;5045467;28;19923;-77
2021/12/17 12:31:06;;;;;;;;;;;;;;;5.94;100.00;103788.88;5063199;28;20358;-77
2021/12/17 12:33:31;;;;;;;;;;;;;;;5.92;100.00;103794.13;5082317;28;19934;-76
2021/12/17 12:35:57;;;;;;;;;;;;;;;5.89;100.00;103783.78;5067018;28;19915;-78
2021/12/17 12:38:28;;;;;;;;;;;;;;;5.92;100.00;103775.06;5083539;28;19916;-78
2021/12/17 12:40:57;;;;;;;;;;;;;;;6.01;100.00;103780.88;5065037;28;19973;-77
2021/12/17 12:43:25;;;;;;;;;;;;;;;5.97;100.00;103778.41;5064707;28;19926;-76
2021/12/17 12:45:51;;;;;;;;;;;;;;;5.97;100.00;103781.88;5080950;28;19966;-77
2021/12/17 12:48:27;;;;;;;;;;;;;;;5.93;100.00;103767.16;5066887;28;19912;-76
2021/12/17 12:51:12;;;;;;;;;;;;;;;5.96;100.00;103772.34;5066452;28;19916;-76
2021/12/17 12:53:38;;;;;;;;;;;;;;;5.98;100.00;103780.13;5070291;28;19916;-77
2021/12/17 12:56:07;;;;;;;;;;;;;;;5.99;100.00;103779.22;5062391;28;19923;-77
2021/12/17 12:58:36;;;;;;;;;;;;;;;6.02;100.00;103779.97;5066695;28;19929;-77
2021/12/17 13:01:02;;;;;;;;;;;;;;;6.06;100.00;103769.47;5065793;28;19916;-79
2021/12/17 13:03:35;;;;;;;;;;;;;;;6.00;100.00;103763.53;5080861;28;19919;-77
2021/12/17 13:06:01;;;;;;;;;;;;;;;6.00;100.00;103758.31;5067211;28;20599;-77
2021/12/17 13:08:30;;;;;;;;;;;;;;;6.10;100.00;103761.53;5064414;28;19924;-77
2021/12/17 13:10:58;;;;;;;;;;;;;;;6.02;100.00;103753.06;5043474;28;19979;-77
2021/12/17 13:13:36;;;;;;;;;;;;;;;6.10;100.00;103753.69;5063369;28;19979;-78
2021/12/17 13:16:18;;;;;;;;;;;;;;;6.20;100.00;103747.34;5066897;28;19998;-77
2021/12/17 13:24:12;;;;;;;;;;;;;;;6.17;100.00;103749.19;5066458;28;19958;-77
2021/12/17 13:26:43;;;;;;;;;;;;;;;6.21;100.00;103751.63;5058739;28;19915;-77
2021/12/17 13:29:14;;;;;;;;;;;;;;;6.19;100.00;103755.19;5061512;28;19916;-77
2021/12/17 13:31:58;;;;;;;;;;;;;;;6.10;100.00;103758.91;5076133;28;19983;-78
2021/12/17 13:34:33;;;;;;;;;;;;;;;6.27;100.00;103753.22;5080502;28;19922;-78
2021/12/17 13:37:07;;;;;;;;;;;;;;;6.15;100.00;103751.81;5044999;28;19916;-77
2021/12/17 13:39:37;;;;;;;;;;;;;;;6.18;100.00;103749.16;5065243;28;19924;-78
2021/12/17 13:42:03;;;;;;;;;;;;;;;6.13;100.00;103755.38;5042781;28;20133;-78
2021/12/17 13:44:40;;;;;;;;;;;;;;;6.16;100.00;103756.16;5063454;28;19913;-77
2021/12/17 13:47:09;;;;;;;;;;;;;;;6.20;100.00;103764.75;5064067;28;19912;-77
2021/12/17 13:49:35;;;;;;;;;;;;;;;6.14;100.00;103768.38;5058914;28;19931;-77
2021/12/17 13:52:01;;;;;;;;;;;;;;;6.21;100.00;103758.63;5043952;28;19912;-78
2021/12/17 13:54:27;;;;;;;;;;;;;;;6.16;100.00;103750.94;5080473;28;19916;-77
2021/12/17 13:56:56;;;;;;;;;;;;;;;6.23;100.00;103742.06;5064517;28;19939;-77
2021/12/17 13:59:33;;;;;;;;;;;;;;;6.16;100.00;103748.34;5058218;28;19916;-78
2021/12/17 14:02:05;;;;;;;;;;;;;;;6.14;100.00;103744.91;5058698;28;20046;-76
2021/12/17 14:04:31;;;;;;;;;;;;;;;6.17;100.00;103752.63;5076228;28;19958;-77
2021/12/17 14:07:03;;;;;;;;;;;;;;;6.13;100.00;103751.03;5042415;28;19912;-77
2021/12/17 14:09:28;;;;;;;;;;;;;;;6.18;100.00;103748.28;5076540;28;20427;-77
2021/12/17 14:11:57;;;;;;;;;;;;;;;6.18;100.00;103740.47;5058351;28;20519;-77
2021/12/17 14:14:26;;;;;;;;;;;;;;;6.16;100.00;103730.09;5076415;28;19951;-76
2021/12/17 14:17:00;;;;;;;;;;;;;;;6.19;100.00;103736.97;5073565;28;19942;-76
2021/12/17 14:19:34;;;;;;;;;;;;;;;6.25;100.00;103728.94;5054724;28;19916;-76
2021/12/17 14:22:00;;;;;;;;;;;;;;;6.23;100.00;103729.03;5059386;28;20010;-76
2021/12/17 14:24:29;;;;;;;;;;;;;;;6.21;100.00;103730.78;5040974;28;19964;-75
2021/12/17 14:26:54;;;;;;;;;;;;;;;6.23;100.00;103735.97;5039322;28;19916;-78
2021/12/17 14:29:20;;;;;;;;;;;;;;;6.30;100.00;103747.06;5040202;28;20007;-78
2021/12/17 14:31:46;;;;;;;;;;;;;;;6.31;100.00;103739.22;5075571;28;19916;-77
2021/12/17 14:34:15;;;;;;;;;;;;;;;6.30;100.00;103741.88;5074427;28;19954;-76
2021/12/17 14:36:41;;;;;;;;;;;;;;;6.25;100.00;103736.78;5059679;28;19912;-77
2021/12/17 14:39:10;;;;;;;;;;;;;;;6.21;100.00;103738.59;5056134;28;19912;-77
2021/12/17 14:41:53;;;;;;;;;;;;;;;6.24;100.00;103745.50;5074978;28;20493;-77
2021/12/17 14:46:58;;;;;;;;;;;;;;;6.29;100.00;103743.63;5058565;28;20281;-77
2021/12/17 15:04:43;;;;;;;;;;;;;;;6.25;100.00;103736.78;5057302;28;19919;-77
2021/12/17 15:07:08;;;;;;;;;;;;;;;6.28;100.00;103731.47;5053221;28;19920;-76
2021/12/17 15:09:36;;;;;;;;;;;;;;;6.31;100.00;103735.72;5073853;28;19912;-77
2021/12/17 15:12:12;;;;;;;;;;;;;;;6.32;100.00;103729.63;5045283;28;19923;-76
2021/12/17 15:14:38;;;;;;;;;;;;;;;6.30;100.00;103734.88;5058603;28;20004;-75
2021/12/17 15:17:04;;;;;;;;;;;;;;;6.39;100.00;103725.94;5056707;28;19912;-76
2021/12/17 15:19:30;;;;;;;;;;;;;;;6.39;100.00;103725.94;5057862;28;19976;-76
2021/12/17 15:21:55;;;;;;;;;;;;;;;6.35;100.00;103724.34;5076540;28;19955;-75
2021/12/17 15:24:21;;;;;;;;;;;;;;;6.38;100.00;103717.25;5058216;28;19919;-76
2021/12/17 15:26:47;;;;;;;;;;;;;;;6.38;100.00;103713.81;5061578;28;19923;-75
2021/12/17 15:29:12;;;;;;;;;;;;;;;6.42;100.00;103720.63;5056773;28;19920;-76
2021/12/17 15:31:38;;;;;;;;;;;;;;;6.47;100.00;103723.94;5078208;28;19923;-76
2021/12/17 15:34:03;;;;;;;;;;;;;;;6.51;100.00;103722.13;5080633;28;19955;-76
2021/12/17 15:36:29;;;;;;;;;;;;;;;6.51;100.00;103717.75;5064839;28;19916;-76
2021/12/17 15:38:54;;;;;;;;;;;;;;;6.54;100.00;103719.41;5062849;28;20369;-78
2021/12/17 15:41:20;;;;;;;;;;;;;;;6.58;100.00;103714.06;5060226;28;19916;-77
2021/12/17 15:43:46;;;;;;;;;;;;;;;6.61;100.00;103715.69;5077659;28;19923;-76